Time;durP1;ratioP1;P1;durP2;ratioP2;P2;SDS_P1;SDS_P2;PMS_P1;PMS_P2;Temp;Humidity;BMP_temperature;BMP_pressure;BME280_temperature;BME280_humidity;BME280_pressure;Samples;Min_cycle;Max_cycle;Signal;HPM_P1;HPM_P2
2021/07/30 00:01:51;;;;;;;3.70;1.30;;;;;;;;;;5120238;28;20030;-72
2021/07/30 00:04:17;;;;;;;4.13;1.38;;;;;;;;;;5131058;28;20020;-72
2021/07/30 00:06:43;;;;;;;7.45;1.55;;;;;;;;;;5131240;28;20023;-73
2021/07/30 00:09:11;;;;;;;4.93;1.55;;;;;;;;;;5131280;28;20034;-72
2021/07/30 00:11:38;;;;;;;6.63;1.50;;;;;;;;;;5127791;28;20027;-72
2021/07/30 00:14:04;;;;;;;6.07;1.58;;;;;;;;;;5120482;28;20033;-74
2021/07/30 00:16:29;;;;;;;5.55;1.60;;;;;;;;;;5130943;28;20016;-74
2021/07/30 00:18:56;;;;;;;7.45;1.90;;;;;;;;;;5132402;27;20030;-72
2021/07/30 00:21:21;;;;;;;8.50;1.67;;;;;;;;;;5134848;27;20436;-73
2021/07/30 00:23:47;;;;;;;7.13;1.60;;;;;;;;;;5134510;27;20084;-71
2021/07/30 00:26:12;;;;;;;4.93;1.42;;;;;;;;;;5135926;27;20062;-72
2021/07/30 00:28:38;;;;;;;5.22;1.30;;;;;;;;;;5135698;27;20080;-73
2021/07/30 00:31:03;;;;;;;4.25;1.63;;;;;;;;;;5134251;27;20027;-72
2021/07/30 00:33:29;;;;;;;5.43;1.40;;;;;;;;;;5133910;27;20359;-71
2021/07/30 00:35:55;;;;;;;4.85;1.58;;;;;;;;;;5133397;27;20019;-72
2021/07/30 00:38:21;;;;;;;7.85;1.65;;;;;;;;;;5134619;27;20072;-72
2021/07/30 00:40:46;;;;;;;4.57;1.48;;;;;;;;;;5134807;27;20032;-71
2021/07/30 00:43:14;;;;;;;8.07;1.58;;;;;;;;;;5135112;27;20032;-71
2021/07/30 00:45:39;;;;;;;9.80;1.58;;;;;;;;;;5134667;27;20015;-71
2021/07/30 00:48:06;;;;;;;6.38;1.50;;;;;;;;;;5113271;28;20042;-72
2021/07/30 00:50:33;;;;;;;5.65;1.60;;;;;;;;;;5114416;28;20261;-71
2021/07/30 00:52:58;;;;;;;5.18;1.67;;;;;;;;;;5114928;28;20545;-72
2021/07/30 00:55:24;;;;;;;6.22;1.83;;;;;;;;;;5114148;28;20016;-71
2021/07/30 00:57:52;;;;;;;4.63;1.70;;;;;;;;;;5114306;27;20023;-71
2021/07/30 01:00:19;;;;;;;5.55;1.63;;;;;;;;;;5114154;28;20030;-71
2021/07/30 01:02:44;;;;;;;6.97;1.70;;;;;;;;;;5112418;28;20165;-71
2021/07/30 01:05:11;;;;;;;6.68;1.65;;;;;;;;;;5114223;28;20106;-71
2021/07/30 01:07:36;;;;;;;4.80;1.63;;;;;;;;;;5112440;28;20023;-72
2021/07/30 01:10:02;;;;;;;5.18;1.75;;;;;;;;;;5114056;28;20035;-71
2021/07/30 01:12:27;;;;;;;6.72;1.88;;;;;;;;;;5118416;27;20424;-71
2021/07/30 01:14:54;;;;;;;7.32;2.05;;;;;;;;;;5134508;27;20022;-71
2021/07/30 01:17:20;;;;;;;5.00;1.67;;;;;;;;;;5134363;27;20011;-72
2021/07/30 01:19:46;;;;;;;9.07;1.92;;;;;;;;;;5134625;27;20058;-71
2021/07/30 01:22:24;;;;;;;5.55;1.50;;;;;;;;;;5134341;27;20058;-71
2021/07/30 01:24:51;;;;;;;7.25;1.58;;;;;;;;;;5134380;27;20102;-72
2021/07/30 01:27:16;;;;;;;7.82;1.80;;;;;;;;;;5134203;27;20512;-72
2021/07/30 01:29:42;;;;;;;5.88;1.73;;;;;;;;;;5133727;27;20118;-71
2021/07/30 01:32:07;;;;;;;4.97;1.50;;;;;;;;;;5134102;27;20106;-73
2021/07/30 01:34:33;;;;;;;6.22;1.55;;;;;;;;;;5134148;27;20022;-72
2021/07/30 01:36:58;;;;;;;4.28;1.30;;;;;;;;;;5132631;27;20015;-73
2021/07/30 01:39:24;;;;;;;4.68;1.40;;;;;;;;;;5133889;27;20034;-73
2021/07/30 01:41:49;;;;;;;5.22;1.52;;;;;;;;;;5133991;27;20042;-72
2021/07/30 01:44:15;;;;;;;3.97;1.48;;;;;;;;;;5133926;27;20413;-72
2021/07/30 01:46:41;;;;;;;8.85;2.33;;;;;;;;;;5133425;27;20478;-72
2021/07/30 01:49:06;;;;;;;6.47;1.80;;;;;;;;;;5133919;27;20371;-71
2021/07/30 01:51:32;;;;;;;10.73;2.17;;;;;;;;;;5133632;27;20026;-71
2021/07/30 01:53:57;;;;;;;6.53;1.73;;;;;;;;;;5133742;27;20054;-72
2021/07/30 01:56:23;;;;;;;6.68;1.45;;;;;;;;;;5133892;27;20031;-72
2021/07/30 01:58:48;;;;;;;10.32;1.88;;;;;;;;;;5133521;27;20489;-72
2021/07/30 02:01:13;;;;;;;4.15;1.77;;;;;;;;;;5133475;27;20479;-72
2021/07/30 02:03:40;;;;;;;6.97;1.85;;;;;;;;;;5133328;27;20043;-72
2021/07/30 02:06:09;;;;;;;4.32;1.27;;;;;;;;;;5133417;27;20021;-71
2021/07/30 02:08:35;;;;;;;4.68;2.10;;;;;;;;;;5133210;27;20493;-73
2021/07/30 02:11:07;;;;;;;4.28;1.40;;;;;;;;;;5133416;27;20157;-72
2021/07/30 02:16:17;;;;;;;4.28;1.42;;;;;;;;;;5133239;27;20095;-72
2021/07/30 02:18:43;;;;;;;5.63;1.52;;;;;;;;;;5133219;27;20114;-72
2021/07/30 02:21:08;;;;;;;4.47;1.27;;;;;;;;;;5133283;27;20030;-72
2021/07/30 02:23:33;;;;;;;6.10;1.70;;;;;;;;;;5133091;27;20027;-71
2021/07/30 02:25:59;;;;;;;5.30;2.00;;;;;;;;;;5133147;27;20048;-71
2021/07/30 02:28:24;;;;;;;5.40;1.70;;;;;;;;;;5133145;27;20038;-72
2021/07/30 02:30:50;;;;;;;5.55;1.80;;;;;;;;;;5132822;27;20051;-71
2021/07/30 02:33:15;;;;;;;4.72;1.58;;;;;;;;;;5133018;27;20106;-71
2021/07/30 02:35:41;;;;;;;4.78;1.55;;;;;;;;;;5132589;27;20092;-72
2021/07/30 02:38:06;;;;;;;8.20;2.00;;;;;;;;;;5132922;27;20044;-71
2021/07/30 02:40:32;;;;;;;7.65;1.58;;;;;;;;;;5133130;27;20118;-72
2021/07/30 02:42:59;;;;;;;6.18;1.45;;;;;;;;;;5132229;27;20434;-72
2021/07/30 02:45:24;;;;;;;4.22;1.40;;;;;;;;;;5132700;27;20431;-71
2021/07/30 02:47:49;;;;;;;4.97;1.77;;;;;;;;;;5132142;27;20039;-72
2021/07/30 02:50:15;;;;;;;6.88;1.67;;;;;;;;;;5114145;27;20062;-72
2021/07/30 02:52:40;;;;;;;5.57;1.60;;;;;;;;;;5132354;27;20057;-72
2021/07/30 02:55:06;;;;;;;7.65;1.70;;;;;;;;;;5132374;27;20485;-72
2021/07/30 02:57:32;;;;;;;2.55;1.58;;;;;;;;;;5132364;27;20076;-72
2021/07/30 02:59:57;;;;;;;6.57;2.05;;;;;;;;;;5132719;27;20467;-72
2021/07/30 03:02:22;;;;;;;3.78;1.63;;;;;;;;;;5132539;27;20138;-72
2021/07/30 03:04:48;;;;;;;4.55;1.70;;;;;;;;;;5132776;27;20358;-72
2021/07/30 03:07:13;;;;;;;6.47;1.70;;;;;;;;;;5132163;27;20070;-73
2021/07/30 03:09:39;;;;;;;7.22;1.67;;;;;;;;;;5132123;27;20050;-72
2021/07/30 03:12:05;;;;;;;5.40;1.92;;;;;;;;;;5132252;27;20431;-71
2021/07/30 03:14:30;;;;;;;5.07;2.80;;;;;;;;;;5131974;27;20530;-72
2021/07/30 03:16:56;;;;;;;8.75;1.92;;;;;;;;;;5132131;27;20023;-72
2021/07/30 03:19:21;;;;;;;3.90;1.90;;;;;;;;;;5132170;27;20023;-72
2021/07/30 03:21:46;;;;;;;5.65;1.63;;;;;;;;;;5131964;27;20034;-72
2021/07/30 03:24:12;;;;;;;5.20;1.90;;;;;;;;;;5132367;27;20023;-72
2021/07/30 03:26:37;;;;;;;5.40;1.80;;;;;;;;;;5131764;27;20511;-72
2021/07/30 03:29:06;;;;;;;7.45;1.45;;;;;;;;;;5132263;27;20034;-72
2021/07/30 03:31:31;;;;;;;5.95;1.60;;;;;;;;;;5131920;27;20182;-72
2021/07/30 03:33:56;;;;;;;5.90;1.65;;;;;;;;;;5132066;27;20120;-72
2021/07/30 03:36:22;;;;;;;6.18;2.03;;;;;;;;;;5132228;27;20023;-72
2021/07/30 03:38:48;;;;;;;5.25;1.83;;;;;;;;;;5131743;27;20026;-72
2021/07/30 03:41:13;;;;;;;5.43;1.90;;;;;;;;;;5131804;28;20073;-72
2021/07/30 03:43:39;;;;;;;9.70;2.05;;;;;;;;;;5130958;28;20038;-73
2021/07/30 03:46:04;;;;;;;5.55;1.75;;;;;;;;;;5120529;28;20039;-71
2021/07/30 03:48:31;;;;;;;8.27;1.70;;;;;;;;;;5111082;28;20128;-72
2021/07/30 03:50:57;;;;;;;5.25;2.05;;;;;;;;;;5111339;28;20024;-73
2021/07/30 03:53:23;;;;;;;7.68;1.77;;;;;;;;;;5112261;28;20536;-72
2021/07/30 03:55:48;;;;;;;3.97;1.48;;;;;;;;;;5115371;28;20269;-72
2021/07/30 03:58:14;;;;;;;5.40;1.45;;;;;;;;;;5115500;28;20445;-72
2021/07/30 04:00:39;;;;;;;5.03;1.60;;;;;;;;;;5115212;28;20530;-73
2021/07/30 04:03:05;;;;;;;7.32;2.22;;;;;;;;;;5115351;28;20020;-72
2021/07/30 04:05:30;;;;;;;2.53;1.50;;;;;;;;;;5115113;28;20034;-73
2021/07/30 04:07:56;;;;;;;7.82;1.55;;;;;;;;;;5115177;28;20020;-72
2021/07/30 04:10:22;;;;;;;4.70;1.52;;;;;;;;;;5115243;28;20032;-71
2021/07/30 04:12:47;;;;;;;6.03;1.60;;;;;;;;;;5122490;27;20110;-72
2021/07/30 04:15:13;;;;;;;5.00;1.60;;;;;;;;;;5135785;27;20031;-72
2021/07/30 04:17:38;;;;;;;4.95;1.40;;;;;;;;;;5135557;27;20114;-73
2021/07/30 04:20:04;;;;;;;5.20;1.50;;;;;;;;;;5135560;27;20386;-71
2021/07/30 04:22:30;;;;;;;4.60;1.70;;;;;;;;;;5135687;27;20072;-72
2021/07/30 04:24:55;;;;;;;6.47;1.90;;;;;;;;;;5135360;27;20027;-72
2021/07/30 04:27:21;;;;;;;11.55;1.92;;;;;;;;;;5135339;27;20027;-72
2021/07/30 04:29:46;;;;;;;10.65;2.15;;;;;;;;;;5135314;27;20066;-73
2021/07/30 04:32:12;;;;;;;5.53;1.60;;;;;;;;;;5135340;27;20050;-71
2021/07/30 04:34:39;;;;;;;3.95;1.88;;;;;;;;;;5135154;27;20039;-72
2021/07/30 04:37:05;;;;;;;7.88;1.83;;;;;;;;;;5135160;27;20155;-72
2021/07/30 04:39:30;;;;;;;5.90;2.03;;;;;;;;;;5135294;27;20102;-72
2021/07/30 04:41:57;;;;;;;4.88;1.85;;;;;;;;;;5134999;27;20111;-72
2021/07/30 04:44:22;;;;;;;5.57;1.67;;;;;;;;;;5135143;27;20386;-72
2021/07/30 04:46:48;;;;;;;10.10;2.13;;;;;;;;;;5134563;27;20039;-73
2021/07/30 04:49:13;;;;;;;3.85;1.95;;;;;;;;;;5135127;27;20050;-72
2021/07/30 04:51:39;;;;;;;6.32;2.03;;;;;;;;;;5134852;27;20023;-72
2021/07/30 04:54:04;;;;;;;4.90;1.67;;;;;;;;;;5134862;27;20019;-73
2021/07/30 04:56:29;;;;;;;5.60;1.70;;;;;;;;;;5134912;27;20147;-73
2021/07/30 04:58:55;;;;;;;7.13;1.70;;;;;;;;;;5134497;27;20019;-72
2021/07/30 05:01:20;;;;;;;6.60;1.65;;;;;;;;;;5134865;27;20019;-72
2021/07/30 05:03:46;;;;;;;4.30;1.40;;;;;;;;;;5134324;27;20106;-72
2021/07/30 05:06:16;;;;;;;4.85;1.48;;;;;;;;;;5134121;27;20023;-72
2021/07/30 05:08:42;;;;;;;6.15;2.15;;;;;;;;;;5134372;27;20023;-72
2021/07/30 05:11:10;;;;;;;4.65;1.80;;;;;;;;;;5134649;27;20027;-73
2021/07/30 05:13:38;;;;;;;5.30;1.48;;;;;;;;;;5133481;27;20015;-72
2021/07/30 05:16:11;;;;;;;3.85;1.48;;;;;;;;;;5134012;27;20019;-72
2021/07/30 05:18:37;;;;;;;3.85;1.23;;;;;;;;;;5113702;28;20027;-72
2021/07/30 05:21:04;;;;;;;6.97;1.77;;;;;;;;;;5113927;28;20055;-72
2021/07/30 05:23:30;;;;;;;3.50;1.60;;;;;;;;;;5114794;27;20425;-72
2021/07/30 05:25:56;;;;;;;6.35;1.40;;;;;;;;;;5111840;28;20024;-71
2021/07/30 05:28:21;;;;;;;4.55;1.27;;;;;;;;;;5113726;28;20023;-72
2021/07/30 05:30:47;;;;;;;6.25;1.65;;;;;;;;;;5113530;28;20159;-72
2021/07/30 05:33:12;;;;;;;5.10;1.42;;;;;;;;;;5113771;28;20186;-72
2021/07/30 05:35:37;;;;;;;6.80;1.70;;;;;;;;;;5113474;28;20043;-73
2021/07/30 05:38:03;;;;;;;7.03;1.50;;;;;;;;;;5113520;28;20476;-73
2021/07/30 05:40:28;;;;;;;5.78;1.60;;;;;;;;;;5113524;28;20023;-72
2021/07/30 05:42:54;;;;;;;6.63;2.28;;;;;;;;;;5113316;28;20072;-72
2021/07/30 05:45:20;;;;;;;7.22;2.00;;;;;;;;;;5113463;28;20019;-72
2021/07/30 05:47:48;;;;;;;8.70;1.67;;;;;;;;;;5130227;27;20035;-73
2021/07/30 05:50:14;;;;;;;6.45;1.75;;;;;;;;;;5133728;27;20474;-72
2021/07/30 05:52:40;;;;;;;5.32;1.70;;;;;;;;;;5133735;27;20023;-72
2021/07/30 05:55:06;;;;;;;5.10;1.73;;;;;;;;;;5133860;27;20080;-72
2021/07/30 05:57:34;;;;;;;5.30;1.70;;;;;;;;;;5133774;27;20047;-72
2021/07/30 06:00:04;;;;;;;8.73;1.70;;;;;;;;;;5133588;27;20533;-72
2021/07/30 06:02:30;;;;;;;8.05;1.95;;;;;;;;;;5133698;27;20497;-72
2021/07/30 06:04:55;;;;;;;3.88;1.63;;;;;;;;;;5133448;27;20828;-72
2021/07/30 06:07:21;;;;;;;4.88;1.77;;;;;;;;;;5133477;27;20470;-72
2021/07/30 06:09:46;;;;;;;5.75;1.88;;;;;;;;;;5133369;27;20076;-72
2021/07/30 06:12:12;;;;;;;8.23;2.38;;;;;;;;;;5133296;27;20110;-71
2021/07/30 06:14:37;;;;;;;8.55;2.47;;;;;;;;;;5133194;27;20019;-70
2021/07/30 06:17:03;;;;;;;8.52;2.47;;;;;;;;;;5132156;27;20023;-69
2021/07/30 06:19:28;;;;;;;14.07;2.53;;;;;;;;;;5133273;27;20028;-71
2021/07/30 06:21:54;;;;;;;11.07;3.03;;;;;;;;;;5133342;27;20031;-70
2021/07/30 06:24:19;;;;;;;16.17;3.28;;;;;;;;;;5114761;27;20023;-71
2021/07/30 06:26:45;;;;;;;10.57;2.53;;;;;;;;;;5132886;27;20377;-71
2021/07/30 06:29:10;;;;;;;7.75;1.85;;;;;;;;;;5133242;27;20084;-69
2021/07/30 06:31:36;;;;;;;11.38;2.92;;;;;;;;;;5133179;27;20097;-69
2021/07/30 06:34:01;;;;;;;11.50;3.85;;;;;;;;;;5133109;27;20029;-70
2021/07/30 06:36:26;;;;;;;15.07;5.07;;;;;;;;;;5132910;27;20117;-70
2021/07/30 06:38:52;;;;;;;10.48;3.30;;;;;;;;;;5132895;27;20446;-69
2021/07/30 06:41:18;;;;;;;11.50;3.47;;;;;;;;;;5133085;27;20251;-70
2021/07/30 06:43:43;;;;;;;10.75;3.92;;;;;;;;;;5132704;27;20027;-70
2021/07/30 06:46:09;;;;;;;12.35;3.22;;;;;;;;;;5132510;27;20046;-71
2021/07/30 06:48:35;;;;;;;13.85;3.83;;;;;;;;;;5132772;27;20031;-71
2021/07/30 06:51:00;;;;;;;12.68;3.70;;;;;;;;;;5132683;27;20019;-69
2021/07/30 06:53:27;;;;;;;11.70;4.10;;;;;;;;;;5132631;27;20126;-69
2021/07/30 06:55:52;;;;;;;12.88;4.20;;;;;;;;;;5132270;27;20526;-70
2021/07/30 06:58:17;;;;;;;12.30;3.83;;;;;;;;;;5132447;27;20023;-69
2021/07/30 07:00:43;;;;;;;15.55;4.50;;;;;;;;;;5132279;27;20030;-70
2021/07/30 07:03:08;;;;;;;11.50;3.17;;;;;;;;;;5131953;27;20485;-70
2021/07/30 07:05:34;;;;;;;8.10;3.45;;;;;;;;;;5132186;27;20019;-70
2021/07/30 07:08:00;;;;;;;10.23;3.30;;;;;;;;;;5132106;27;20427;-70
2021/07/30 07:10:25;;;;;;;11.77;2.88;;;;;;;;;;5132133;27;20034;-70
2021/07/30 07:12:51;;;;;;;12.20;3.65;;;;;;;;;;5132175;27;20027;-70
2021/07/30 07:15:16;;;;;;;8.15;3.50;;;;;;;;;;5131178;27;20026;-70
2021/07/30 07:17:41;;;;;;;11.48;3.80;;;;;;;;;;5130779;27;20073;-70
2021/07/30 07:20:07;;;;;;;14.32;3.25;;;;;;;;;;5130942;27;20015;-70
2021/07/30 07:22:33;;;;;;;12.00;3.53;;;;;;;;;;5131162;27;20098;-70
2021/07/30 07:24:58;;;;;;;8.20;3.10;;;;;;;;;;5130668;27;20068;-71
2021/07/30 07:27:26;;;;;;;9.90;3.53;;;;;;;;;;5130127;27;20011;-70
2021/07/30 07:29:52;;;;;;;10.68;3.35;;;;;;;;;;5131137;27;20107;-70
2021/07/30 07:32:17;;;;;;;10.85;2.90;;;;;;;;;;5132288;27;20105;-69
2021/07/30 07:34:42;;;;;;;8.98;3.42;;;;;;;;;;5131873;27;20077;-71
2021/07/30 07:37:08;;;;;;;10.32;3.05;;;;;;;;;;5132205;27;20412;-69
2021/07/30 07:39:33;;;;;;;10.60;2.83;;;;;;;;;;5131926;27;20363;-71
2021/07/30 07:41:59;;;;;;;7.00;2.30;;;;;;;;;;5131750;27;20471;-70
2021/07/30 07:44:25;;;;;;;4.75;2.00;;;;;;;;;;5131873;28;20088;-71
2021/07/30 07:46:51;;;;;;;6.60;1.90;;;;;;;;;;5131367;28;20035;-71
2021/07/30 07:49:18;;;;;;;4.43;1.67;;;;;;;;;;5132194;28;20571;-71
2021/07/30 07:51:44;;;;;;;7.07;1.63;;;;;;;;;;5131612;28;20031;-72
2021/07/30 07:54:09;;;;;;;3.58;1.80;;;;;;;;;;5131853;28;20027;-72
2021/07/30 07:56:35;;;;;;;8.38;1.90;;;;;;;;;;5131684;28;20023;-72
2021/07/30 07:59:01;;;;;;;5.70;1.80;;;;;;;;;;5131548;28;20019;-72
2021/07/30 08:01:26;;;;;;;4.85;1.77;;;;;;;;;;5131819;28;20027;-74
2021/07/30 08:03:51;;;;;;;3.85;1.48;;;;;;;;;;5131626;28;20031;-73
2021/07/30 08:06:21;;;;;;;5.15;1.83;;;;;;;;;;5131512;28;20482;-72
2021/07/30 08:08:48;;;;;;;7.80;2.20;;;;;;;;;;5131586;28;20030;-73
2021/07/30 08:11:15;;;;;;;5.00;2.20;;;;;;;;;;5131656;28;20070;-73
2021/07/30 08:13:40;;;;;;;5.80;1.70;;;;;;;;;;5131608;28;20023;-73
2021/07/30 08:16:07;;;;;;;8.75;1.75;;;;;;;;;;5131422;28;20394;-72
2021/07/30 08:18:33;;;;;;;4.60;1.80;;;;;;;;;;5131572;28;20023;-73
2021/07/30 08:20:59;;;;;;;5.65;1.88;;;;;;;;;;5131425;28;20029;-72
2021/07/30 08:23:25;;;;;;;5.05;1.70;;;;;;;;;;5131577;28;20027;-72
2021/07/30 08:25:51;;;;;;;2.65;1.20;;;;;;;;;;5130526;28;20042;-72
2021/07/30 08:28:16;;;;;;;4.90;1.30;;;;;;;;;;5124401;28;20481;-72
2021/07/30 08:30:42;;;;;;;3.58;1.10;;;;;;;;;;5131549;28;20020;-72
2021/07/30 08:33:08;;;;;;;4.72;1.15;;;;;;;;;;5131210;28;20038;-71
2021/07/30 08:35:34;;;;;;;2.85;1.48;;;;;;;;;;5131745;28;20027;-72
2021/07/30 08:38:00;;;;;;;5.15;1.42;;;;;;;;;;5126763;28;20100;-72
2021/07/30 08:40:31;;;;;;;3.53;1.17;;;;;;;;;;5112849;28;20055;-73
2021/07/30 08:42:57;;;;;;;3.00;1.20;;;;;;;;;;5117635;27;20020;-72
2021/07/30 08:45:22;;;;;;;3.70;1.38;;;;;;;;;;5122751;27;20046;-72
2021/07/30 08:47:51;;;;;;;2.58;1.27;;;;;;;;;;5131622;27;20031;-72
2021/07/30 08:50:17;;;;;;;4.07;1.20;;;;;;;;;;5134780;27;20046;-72
2021/07/30 08:52:44;;;;;;;4.93;1.65;;;;;;;;;;5134992;27;20027;-72
2021/07/30 08:55:15;;;;;;;4.80;1.40;;;;;;;;;;5127223;27;20046;-72
2021/07/30 08:57:42;;;;;;;3.92;1.50;;;;;;;;;;5113768;27;20471;-72
2021/07/30 09:00:15;;;;;;;8.90;1.92;;;;;;;;;;5132590;27;20019;-72
2021/07/30 09:02:41;;;;;;;7.45;1.80;;;;;;;;;;5134779;27;20027;-71
2021/07/30 09:05:27;;;;;;;4.57;1.27;;;;;;;;;;5115544;27;20027;-72
2021/07/30 09:07:53;;;;;;;6.30;1.40;;;;;;;;;;5133557;27;20027;-72
2021/07/30 09:10:29;;;;;;;7.15;1.80;;;;;;;;;;5133507;27;20030;-71
2021/07/30 09:13:24;;;;;;;6.03;1.40;;;;;;;;;;5132805;27;20019;-72
2021/07/30 09:16:12;;;;;;;3.58;0.90;;;;;;;;;;5133066;27;20026;-71
2021/07/30 09:18:40;;;;;;;4.85;1.05;;;;;;;;;;5115294;27;20168;-71
2021/07/30 09:21:19;;;;;;;5.40;1.08;;;;;;;;;;5134219;27;20042;-72
2021/07/30 09:23:50;;;;;;;5.35;1.48;;;;;;;;;;5126282;27;20019;-72
2021/07/30 09:26:30;;;;;;;4.00;1.17;;;;;;;;;;5128614;27;20027;-72
2021/07/30 09:28:57;;;;;;;3.90;1.10;;;;;;;;;;5133566;27;20458;-72
2021/07/30 09:31:34;;;;;;;6.93;1.38;;;;;;;;;;5134273;27;20015;-71
2021/07/30 09:34:10;;;;;;;5.85;1.27;;;;;;;;;;5128703;27;20019;-71
2021/07/30 09:37:06;;;;;;;3.88;0.80;;;;;;;;;;5125254;27;20156;-71
2021/07/30 09:39:32;;;;;;;3.22;1.15;;;;;;;;;;5114044;27;20095;-71
2021/07/30 09:42:05;;;;;;;3.80;1.33;;;;;;;;;;5134544;27;20031;-72
2021/07/30 09:44:32;;;;;;;2.38;1.00;;;;;;;;;;5133582;27;20381;-72
2021/07/30 09:47:10;;;;;;;3.10;1.20;;;;;;;;;;5133095;27;20135;-73
2021/07/30 09:49:40;;;;;;;2.38;0.95;;;;;;;;;;5132588;27;20504;-72
2021/07/30 09:52:11;;;;;;;4.07;1.27;;;;;;;;;;5132547;27;20088;-72
2021/07/30 09:54:58;;;;;;;6.00;2.13;;;;;;;;;;5133433;27;20071;-72
2021/07/30 09:57:32;;;;;;;3.83;1.23;;;;;;;;;;5118964;27;20042;-72
2021/07/30 10:00:03;;;;;;;4.03;1.10;;;;;;;;;;5114654;27;20069;-72
2021/07/30 10:02:32;;;;;;;2.10;1.02;;;;;;;;;;5133703;27;20031;-72
2021/07/30 10:04:58;;;;;;;3.80;1.30;;;;;;;;;;5127462;27;20023;-72
2021/07/30 10:07:26;;;;;;;5.55;1.30;;;;;;;;;;5111115;27;20019;-72
2021/07/30 10:12:28;;;;;;;3.75;1.05;;;;;;;;;;5128697;27;20035;-73
2021/07/30 10:14:54;;;;;;;2.08;1.00;;;;;;;;;;5117209;27;20038;-72
2021/07/30 10:17:33;;;;;;;3.00;1.20;;;;;;;;;;5124095;27;20019;-73
2021/07/30 10:20:07;;;;;;;3.42;1.08;;;;;;;;;;5131803;27;20062;-72
2021/07/30 10:22:40;;;;;;;4.55;1.10;;;;;;;;;;5115657;27;20116;-74
2021/07/30 10:25:09;;;;;;;3.33;1.00;;;;;;;;;;5123153;27;20070;-72
2021/07/30 10:27:40;;;;;;;3.95;1.45;;;;;;;;;;5127454;27;20083;-72
2021/07/30 10:30:07;;;;;;;2.15;1.08;;;;;;;;;;5129787;27;20041;-72
2021/07/30 10:32:57;;;;;;;2.38;1.00;;;;;;;;;;5121564;27;20094;-72
2021/07/30 10:35:28;;;;;;;6.05;1.52;;;;;;;;;;5116933;27;20549;-73
2021/07/30 10:38:20;;;;;;;3.53;1.15;;;;;;;;;;5125431;27;20023;-73
2021/07/30 10:41:08;;;;;;;5.75;1.20;;;;;;;;;;5118656;27;20019;-73
2021/07/30 10:43:49;;;;;;;3.08;1.02;;;;;;;;;;5126284;27;20047;-71
2021/07/30 10:46:16;;;;;;;4.07;1.20;;;;;;;;;;5124869;27;20037;-72
2021/07/30 10:48:42;;;;;;;2.72;0.90;;;;;;;;;;5128625;27;20042;-71
2021/07/30 10:51:28;;;;;;;3.90;1.00;;;;;;;;;;5116028;27;20031;-71
2021/07/30 10:54:03;;;;;;;4.05;0.93;;;;;;;;;;5125823;27;20023;-71
2021/07/30 10:56:29;;;;;;;5.43;1.20;;;;;;;;;;5126402;27;20023;-70
2021/07/30 10:58:58;;;;;;;4.85;1.23;;;;;;;;;;5123373;27;20023;-71
2021/07/30 11:01:43;;;;;;;5.40;1.23;;;;;;;;;;5121676;27;20502;-72
2021/07/30 11:04:10;;;;;;;4.55;1.30;;;;;;;;;;5118421;27;20050;-72
2021/07/30 11:06:42;;;;;;;6.90;1.30;;;;;;;;;;5125664;27;20426;-72
2021/07/30 11:09:08;;;;;;;2.08;0.98;;;;;;;;;;5127757;27;20019;-73
2021/07/30 11:11:41;;;;;;;6.22;1.30;;;;;;;;;;5122019;27;20024;-73
2021/07/30 11:14:11;;;;;;;5.18;1.27;;;;;;;;;;5128421;27;20026;-73
2021/07/30 11:16:37;;;;;;;4.97;1.20;;;;;;;;;;5129650;27;20018;-73
2021/07/30 11:19:06;;;;;;;3.58;1.20;;;;;;;;;;5128694;27;20027;-71
2021/07/30 11:21:35;;;;;;;4.25;1.70;;;;;;;;;;5129349;27;20046;-70
2021/07/30 11:24:02;;;;;;;4.30;1.63;;;;;;;;;;5130673;27;20124;-72
2021/07/30 11:26:29;;;;;;;8.02;1.90;;;;;;;;;;5132821;27;20031;-72
2021/07/30 11:28:57;;;;;;;4.90;1.90;;;;;;;;;;5125922;27;20051;-71
2021/07/30 11:31:23;;;;;;;7.18;2.45;;;;;;;;;;5123772;27;20026;-71
2021/07/30 11:33:49;;;;;;;6.57;2.20;;;;;;;;;;5129228;27;20031;-72
2021/07/30 11:36:15;;;;;;;6.10;1.85;;;;;;;;;;5130075;27;20019;-71
2021/07/30 11:38:54;;;;;;;4.03;2.00;;;;;;;;;;5130490;27;20037;-71
2021/07/30 11:41:20;;;;;;;4.30;2.20;;;;;;;;;;5130284;27;20343;-73
2021/07/30 11:44:15;;;;;;;5.63;2.20;;;;;;;;;;5130312;28;20023;-72
2021/07/30 11:46:41;;;;;;;6.32;2.22;;;;;;;;;;5112784;28;20031;-72
2021/07/30 11:49:08;;;;;;;5.13;1.80;;;;;;;;;;5109626;28;20425;-70
2021/07/30 11:51:39;;;;;;;5.78;2.35;;;;;;;;;;5110697;28;20107;-71
2021/07/30 11:54:04;;;;;;;7.05;2.20;;;;;;;;;;5111057;28;20110;-72
2021/07/30 11:56:42;;;;;;;6.35;2.10;;;;;;;;;;5111275;28;20534;-71
2021/07/30 11:59:07;;;;;;;4.93;2.03;;;;;;;;;;5111088;28;20501;-71
2021/07/30 12:01:32;;;;;;;5.68;2.17;;;;;;;;;;5111373;28;20036;-69
2021/07/30 12:04:12;;;;;;;5.05;2.08;;;;;;;;;;5110990;28;20030;-68
2021/07/30 12:06:49;;;;;;;4.13;2.28;;;;;;;;;;5111094;28;20059;-70
2021/07/30 12:09:16;;;;;;;5.07;2.17;;;;;;;;;;5109694;28;20039;-68
2021/07/30 12:11:52;;;;;;;11.27;4.05;;;;;;;;;;5111090;28;20446;-69
2021/07/30 12:14:20;;;;;;;5.88;2.72;;;;;;;;;;5133643;27;20095;-69
2021/07/30 12:16:46;;;;;;;7.03;2.65;;;;;;;;;;5135672;27;20023;-70
2021/07/30 12:19:12;;;;;;;5.20;2.28;;;;;;;;;;5135456;27;20389;-69
2021/07/30 12:21:56;;;;;;;5.90;2.25;;;;;;;;;;5135545;27;20023;-69
2021/07/30 12:24:22;;;;;;;6.00;2.33;;;;;;;;;;5135566;27;20029;-71
2021/07/30 12:26:48;;;;;;;7.20;2.33;;;;;;;;;;5135397;27;20027;-72
2021/07/30 12:29:37;;;;;;;5.38;2.35;;;;;;;;;;5135525;27;20027;-72
2021/07/30 12:32:39;;;;;;;6.57;2.13;;;;;;;;;;5135168;27;20050;-71
2021/07/30 12:35:11;;;;;;;6.15;2.38;;;;;;;;;;5124083;27;20053;-69
2021/07/30 12:37:38;;;;;;;10.68;2.28;;;;;;;;;;5135152;27;20058;-71
2021/07/30 12:40:07;;;;;;;16.08;2.85;;;;;;;;;;5135088;27;20031;-71
2021/07/30 12:42:34;;;;;;;9.18;2.42;;;;;;;;;;5135177;27;20525;-70
2021/07/30 12:45:04;;;;;;;8.88;2.88;;;;;;;;;;5134937;27;20526;-71
2021/07/30 12:47:30;;;;;;;9.80;2.78;;;;;;;;;;5134670;27;20412;-70
2021/07/30 12:49:56;;;;;;;4.85;2.53;;;;;;;;;;5134981;27;20025;-72
2021/07/30 12:52:22;;;;;;;7.63;2.08;;;;;;;;;;5134893;27;20054;-71
2021/07/30 12:54:47;;;;;;;6.43;2.63;;;;;;;;;;5134915;27;20047;-70
2021/07/30 12:57:15;;;;;;;8.60;2.85;;;;;;;;;;5134999;27;20080;-71
2021/07/30 12:59:51;;;;;;;6.63;2.67;;;;;;;;;;5135156;27;20023;-71
2021/07/30 13:02:18;;;;;;;5.80;2.60;;;;;;;;;;5134960;27;20019;-72
2021/07/30 13:04:44;;;;;;;6.38;2.50;;;;;;;;;;5134706;27;20031;-72
2021/07/30 13:07:10;;;;;;;6.28;2.70;;;;;;;;;;5134322;27;20011;-71
2021/07/30 13:09:35;;;;;;;7.90;3.80;;;;;;;;;;5134624;27;20501;-72
2021/07/30 13:12:02;;;;;;;8.52;2.83;;;;;;;;;;5134196;27;20023;-72
2021/07/30 13:14:29;;;;;;;6.10;3.20;;;;;;;;;;5134500;27;20031;-71
2021/07/30 13:16:54;;;;;;;8.02;3.00;;;;;;;;;;5134423;27;20038;-72
2021/07/30 13:19:20;;;;;;;10.80;3.33;;;;;;;;;;5134280;27;20031;-71
2021/07/30 13:21:45;;;;;;;8.05;3.00;;;;;;;;;;5134747;27;20412;-71
2021/07/30 13:24:10;;;;;;;13.95;4.05;;;;;;;;;;5134205;27;20289;-71
2021/07/30 13:26:36;;;;;;;11.88;3.58;;;;;;;;;;5133547;27;20015;-71
2021/07/30 13:29:01;;;;;;;10.60;3.60;;;;;;;;;;5134056;27;20023;-70
2021/07/30 13:31:27;;;;;;;8.10;3.10;;;;;;;;;;5134254;27;20048;-69
2021/07/30 13:33:52;;;;;;;10.15;3.88;;;;;;;;;;5134282;27;20378;-71
2021/07/30 13:36:17;;;;;;;6.70;2.65;;;;;;;;;;5133935;27;20023;-68
2021/07/30 13:38:43;;;;;;;9.05;2.90;;;;;;;;;;5134103;27;20024;-69
2021/07/30 13:41:12;;;;;;;5.35;2.25;;;;;;;;;;5133882;27;20020;-70
2021/07/30 13:43:41;;;;;;;8.45;2.65;;;;;;;;;;5134284;27;20481;-69
2021/07/30 13:46:06;;;;;;;6.22;2.63;;;;;;;;;;5133697;27;20058;-70
2021/07/30 13:48:32;;;;;;;7.18;2.47;;;;;;;;;;5133938;27;20423;-70
2021/07/30 13:51:03;;;;;;;7.70;2.58;;;;;;;;;;5133838;27;20058;-73
2021/07/30 13:53:29;;;;;;;8.98;2.92;;;;;;;;;;5133778;27;20023;-73
2021/07/30 13:55:55;;;;;;;5.45;2.25;;;;;;;;;;5133626;27;20034;-74
2021/07/30 13:58:20;;;;;;;7.15;2.47;;;;;;;;;;5133389;27;20455;-73
2021/07/30 14:00:46;;;;;;;7.32;2.83;;;;;;;;;;5133667;27;20015;-73
2021/07/30 14:03:12;;;;;;;5.22;2.85;;;;;;;;;;5133418;27;20019;-73
2021/07/30 14:05:44;;;;;;;7.13;2.50;;;;;;;;;;5133505;27;20042;-73
2021/07/30 14:08:14;;;;;;;4.28;2.67;;;;;;;;;;5133126;27;20019;-71
2021/07/30 14:10:40;;;;;;;5.97;2.40;;;;;;;;;;5133431;27;20482;-71
2021/07/30 14:13:05;;;;;;;4.65;2.78;;;;;;;;;;5133096;27;20042;-71
2021/07/30 14:15:32;;;;;;;4.63;2.90;;;;;;;;;;5133335;27;20157;-70
2021/07/30 14:17:58;;;;;;;6.65;3.33;;;;;;;;;;5133203;27;20024;-72
2021/07/30 14:20:24;;;;;;;8.45;3.42;;;;;;;;;;5133064;27;20110;-72
2021/07/30 14:22:49;;;;;;;6.95;3.10;;;;;;;;;;5133092;27;20050;-71
2021/07/30 14:25:15;;;;;;;6.35;3.20;;;;;;;;;;5132937;27;20038;-71
2021/07/30 14:27:41;;;;;;;8.80;2.88;;;;;;;;;;5133141;27;20023;-71
2021/07/30 14:30:07;;;;;;;9.52;2.72;;;;;;;;;;5133126;27;20054;-71
2021/07/30 14:32:32;;;;;;;6.38;2.60;;;;;;;;;;5132947;27;20027;-71
2021/07/30 14:34:58;;;;;;;7.13;2.30;;;;;;;;;;5133135;27;20034;-70
2021/07/30 14:37:23;;;;;;;9.43;2.35;;;;;;;;;;5130352;27;20031;-70
2021/07/30 14:39:49;;;;;;;4.75;2.20;;;;;;;;;;5132876;27;20030;-70
2021/07/30 14:42:14;;;;;;;5.03;2.00;;;;;;;;;;5132932;27;20043;-72
2021/07/30 14:44:40;;;;;;;6.63;2.42;;;;;;;;;;5132734;27;20329;-71
2021/07/30 14:47:07;;;;;;;4.13;2.17;;;;;;;;;;5132137;27;20032;-72
2021/07/30 14:49:40;;;;;;;4.85;2.28;;;;;;;;;;5132872;27;20051;-71